Time;durP1;ratioP1;P1;durP2;ratioP2;P2;SDS_P1;SDS_P2;PMS_P1;PMS_P2;Temp;Humidity;BMP_temperature;BMP_pressure;BME280_temperature;BME280_humidity;BME280_pressure;Samples;Min_cycle;Max_cycle;Signal;HPM_P1;HPM_P2
2023/08/30 00:02:19;;;;;;;4.32;2.70;;;;;;;-146.27;74.45;82197.38;5040844;28;20025;-74
2023/08/30 00:04:44;;;;;;;5.35;3.25;;;;;;;-146.27;74.06;82217.47;5040606;28;20151;-74
2023/08/30 00:07:10;;;;;;;5.38;3.10;;;;;;;-146.27;74.07;82199.38;5044889;28;20048;-73
2023/08/30 00:09:36;;;;;;;5.30;3.25;;;;;;;-146.27;74.12;82183.31;5048085;28;20047;-74
2023/08/30 00:12:02;;;;;;;4.35;2.92;;;;;;;-146.27;74.02;82219.47;5046023;28;20013;-74
2023/08/30 00:14:28;;;;;;;5.93;3.55;;;;;;;-146.27;73.92;82211.44;5043402;28;20080;-73
2023/08/30 00:16:53;;;;;;;7.13;3.33;;;;;;;-146.27;74.08;82167.25;5042635;28;20094;-74
2023/08/30 00:19:18;;;;;;;6.70;3.92;;;;;;;-146.27;73.54;82215.44;5046985;28;20082;-73
2023/08/30 00:21:44;;;;;;;4.45;3.00;;;;;;;-146.27;73.95;82227.50;5044602;28;20163;-73
2023/08/30 00:24:09;;;;;;;5.43;3.15;;;;;;;-146.27;74.19;82201.38;5042484;28;20036;-72
2023/08/30 00:26:35;;;;;;;9.00;4.05;;;;;;;-146.27;74.49;82223.47;5036681;28;20107;-73
2023/08/30 00:29:00;;;;;;;6.05;3.70;;;;;;;-146.27;74.19;82211.44;5048078;28;20029;-68
2023/08/30 00:31:26;;;;;;;7.10;3.58;;;;;;;-146.27;74.92;82207.41;5045108;28;20473;-68
2023/08/30 00:33:51;;;;;;;6.28;3.20;;;;;;;-146.27;74.69;82221.47;5048406;28;20480;-70
2023/08/30 00:36:18;;;;;;;9.65;4.18;;;;;;;-146.27;74.45;82203.41;5038279;28;20020;-70
2023/08/30 00:38:43;;;;;;;7.90;3.38;;;;;;;-146.27;74.15;82205.41;5045132;28;20037;-69
2023/08/30 00:41:09;;;;;;;6.60;3.58;;;;;;;-146.27;75.38;82153.19;5046230;28;20028;-69
2023/08/30 00:43:34;;;;;;;6.20;3.50;;;;;;;-146.27;75.02;82171.25;5045844;28;20033;-71
2023/08/30 00:46:00;;;;;;;7.57;4.53;;;;;;;-146.27;75.03;82197.38;5045233;28;20017;-69
2023/08/30 00:48:25;;;;;;;9.38;5.18;;;;;;;-146.27;75.17;82187.31;5043982;28;20464;-69
2023/08/30 00:50:51;;;;;;;5.05;3.50;;;;;;;-146.27;75.34;82207.41;5046167;28;20017;-70
2023/08/30 00:53:17;;;;;;;5.03;3.58;;;;;;;-146.27;76.07;82179.28;5041863;28;20037;-69
2023/08/30 00:55:43;;;;;;;7.13;3.47;;;;;;;-146.27;76.43;82203.41;5032763;28;20393;-69
2023/08/30 00:58:09;;;;;;;8.93;3.67;;;;;;;-146.27;75.15;82201.38;5047067;28;20021;-69
2023/08/30 01:00:35;;;;;;;9.23;4.25;;;;;;;-146.27;75.74;82235.53;5044646;28;20099;-71
2023/08/30 01:03:01;;;;;;;9.18;4.38;;;;;;;-146.27;75.87;82179.28;5040785;28;20033;-68
2023/08/30 01:05:27;;;;;;;6.88;4.43;;;;;;;-146.27;75.89;82225.50;5038003;28;20061;-67
2023/08/30 01:07:53;;;;;;;8.05;4.40;;;;;;;-146.27;75.92;82211.44;5047796;28;20104;-68
2023/08/30 01:10:27;;;;;;;9.45;4.18;;;;;;;-146.27;76.35;82223.47;5042213;28;20108;-68
2023/08/30 01:13:02;;;;;;;6.63;3.92;;;;;;;-146.27;76.43;82169.25;5042684;28;20066;-70
2023/08/30 01:15:27;;;;;;;7.18;3.85;;;;;;;-146.27;76.30;82187.31;5040022;28;20137;-68
2023/08/30 01:17:54;;;;;;;6.28;4.13;;;;;;;-146.27;76.52;82211.44;5035543;28;20026;-67
2023/08/30 01:20:23;;;;;;;7.25;4.85;;;;;;;-146.27;76.73;82279.72;5047598;28;20056;-68
2023/08/30 01:22:57;;;;;;;7.47;4.43;;;;;;;-146.27;76.75;82233.53;5045229;28;20025;-67
2023/08/30 01:25:45;;;;;;;8.20;5.13;;;;;;;-146.27;76.77;82221.47;5035230;28;20029;-68
2023/08/30 01:28:11;;;;;;;10.52;4.82;;;;;;;-146.27;76.98;82299.81;5043316;28;20132;-69
2023/08/30 01:30:41;;;;;;;7.00;4.25;;;;;;;-146.27;77.28;82251.59;5037860;28;20032;-68
2023/08/30 01:33:08;;;;;;;10.07;4.57;;;;;;;-146.27;77.43;82231.53;5040277;28;20048;-68
2023/08/30 01:35:36;;;;;;;11.63;4.75;;;;;;;-146.27;77.69;82123.06;5042394;28;20024;-68
2023/08/30 01:38:04;;;;;;;6.85;4.53;;;;;;;-146.27;77.21;82203.41;5040449;28;20036;-68
2023/08/30 01:40:37;;;;;;;10.27;4.75;;;;;;;-146.27;76.92;82229.50;5045167;28;20036;-68
2023/08/30 01:43:05;;;;;;;7.10;4.25;;;;;;;-146.27;77.14;82225.50;5042312;28;20037;-68
2023/08/30 01:45:35;;;;;;;10.35;4.80;;;;;;;-146.27;76.93;82217.47;5040485;28;20032;-67
2023/08/30 01:48:00;;;;;;;8.05;4.38;;;;;;;-146.27;77.24;82243.56;5033074;28;20108;-68
2023/08/30 01:50:27;;;;;;;8.98;4.88;;;;;;;-146.27;77.43;82219.47;5043639;28;20120;-67
2023/08/30 01:52:53;;;;;;;7.63;4.80;;;;;;;-146.27;77.40;82173.28;5043266;28;20111;-68
2023/08/30 01:55:21;;;;;;;8.63;4.50;;;;;;;-146.27;77.13;82173.28;5037876;28;20381;-68
2023/08/30 01:57:46;;;;;;;10.88;4.85;;;;;;;-146.27;77.25;82219.47;5043912;28;20036;-69
2023/08/30 02:00:12;;;;;;;15.40;5.32;;;;;;;-146.27;77.64;82227.50;5037692;28;20037;-68
2023/08/30 02:02:38;;;;;;;14.77;4.82;;;;;;;-146.27;77.51;82227.50;5042020;28;20043;-68
2023/08/30 02:05:04;;;;;;;18.88;5.53;;;;;;;-146.27;77.78;82229.50;5045692;28;20029;-67
2023/08/30 02:07:37;;;;;;;10.00;5.13;;;;;;;-146.27;77.45;82187.31;5040837;28;20465;-68
2023/08/30 02:10:09;;;;;;;10.98;4.65;;;;;;;-146.27;77.66;82195.38;5038330;28;20052;-69
2023/08/30 02:12:42;;;;;;;7.60;4.78;;;;;;;-146.27;77.64;82189.34;5041761;28;20025;-69
2023/08/30 02:15:09;;;;;;;12.43;4.90;;;;;;;-146.27;77.58;82213.44;5032197;28;20050;-68
2023/08/30 02:17:37;;;;;;;10.15;5.68;;;;;;;-146.27;77.53;82223.47;5040535;28;20027;-68
2023/08/30 02:20:03;;;;;;;8.73;5.00;;;;;;;-146.27;78.11;82247.59;5040582;28;20025;-69
2023/08/30 02:22:30;;;;;;;7.53;4.05;;;;;;;-146.27;77.72;82211.44;5043096;28;20119;-69
2023/08/30 02:24:56;;;;;;;7.13;4.78;;;;;;;-146.27;77.57;82227.50;5035597;28;20032;-69
2023/08/30 02:27:21;;;;;;;9.13;4.88;;;;;;;-146.27;77.55;82275.72;5038044;28;20017;-68
2023/08/30 02:29:46;;;;;;;9.25;4.63;;;;;;;-146.27;77.83;82271.69;5041997;28;20324;-69
2023/08/30 02:32:12;;;;;;;7.32;4.20;;;;;;;-146.27;77.53;82199.38;5043878;28;20082;-70
2023/08/30 02:34:37;;;;;;;9.70;4.45;;;;;;;-146.27;77.15;82193.34;5047255;28;20025;-68
2023/08/30 02:37:03;;;;;;;8.82;4.47;;;;;;;-146.27;77.64;82201.38;5039252;28;20090;-68
2023/08/30 02:39:28;;;;;;;12.77;5.50;;;;;;;-146.27;77.48;82203.41;5042547;28;20591;-70
2023/08/30 02:41:53;;;;;;;5.55;3.78;;;;;;;-146.27;77.93;82195.38;5047799;28;20124;-70
2023/08/30 02:44:19;;;;;;;7.47;4.80;;;;;;;-146.27;77.61;82185.31;5042236;28;20057;-70
2023/08/30 02:46:44;;;;;;;7.05;4.68;;;;;;;-146.27;77.98;82191.34;5037722;28;20103;-69
2023/08/30 02:49:11;;;;;;;9.13;5.72;;;;;;;-146.27;77.64;82215.44;5046508;28;20105;-71
2023/08/30 02:51:36;;;;;;;11.48;5.70;;;;;;;-146.27;77.61;82229.50;5046154;28;20075;-69
2023/08/30 02:54:02;;;;;;;8.45;5.18;;;;;;;-146.27;77.49;82219.47;5050825;28;20435;-68
2023/08/30 02:56:28;;;;;;;8.65;5.30;;;;;;;-146.27;77.76;82235.53;5041756;28;20112;-68
2023/08/30 02:58:53;;;;;;;12.98;5.57;;;;;;;-146.27;77.52;82233.53;5045197;28;20025;-68
2023/08/30 03:01:18;;;;;;;13.82;5.30;;;;;;;-146.27;77.37;82219.47;5053892;28;20020;-67
2023/08/30 03:03:46;;;;;;;11.52;5.60;;;;;;;-146.27;77.81;82271.69;5045895;28;20461;-68
2023/08/30 03:06:13;;;;;;;13.18;5.70;;;;;;;-146.27;77.25;82259.66;5044639;28;20373;-68
2023/08/30 03:08:39;;;;;;;11.73;5.65;;;;;;;-146.27;77.81;82307.84;5042650;28;20063;-71
2023/08/30 03:11:12;;;;;;;8.80;5.43;;;;;;;-146.27;77.69;82267.69;5050440;28;20591;-68
2023/08/30 03:13:38;;;;;;;8.85;5.63;;;;;;;-146.27;78.18;82299.81;5049733;28;20546;-69
2023/08/30 03:16:13;;;;;;;12.23;5.85;;;;;;;-146.27;77.94;82289.78;5049918;28;20071;-70
2023/08/30 03:18:39;;;;;;;7.82;4.97;;;;;;;-146.27;78.06;82313.88;5042343;28;20228;-68
2023/08/30 03:21:05;;;;;;;10.05;5.68;;;;;;;-146.27;77.97;82283.75;5051075;28;20439;-70
2023/08/30 03:23:31;;;;;;;9.75;5.97;;;;;;;-146.27;78.19;82295.81;5045441;28;20104;-69
2023/08/30 03:26:06;;;;;;;12.85;6.50;;;;;;;-146.27;77.74;82299.81;5053836;28;20040;-69
2023/08/30 03:28:32;;;;;;;10.10;6.03;;;;;;;-146.27;77.86;82329.94;5046220;28;20026;-69
2023/08/30 03:30:57;;;;;;;13.25;6.20;;;;;;;-146.27;78.08;82331.97;5036637;28;20048;-69
2023/08/30 03:33:22;;;;;;;10.25;6.28;;;;;;;-146.27;78.59;82368.13;5041581;28;20026;-69
2023/08/30 03:35:48;;;;;;;11.55;7.05;;;;;;;-146.27;78.71;82392.22;5045106;28;20451;-69
2023/08/30 03:38:13;;;;;;;12.07;6.47;;;;;;;-146.27;78.39;82392.22;5047847;28;20048;-70
2023/08/30 03:40:39;;;;;;;9.77;6.45;;;;;;;-146.27;78.84;82428.38;5047256;28;20035;-69
2023/08/30 03:43:05;;;;;;;8.65;6.25;;;;;;;-146.27;78.66;82410.31;5051591;28;20490;-68
2023/08/30 03:45:34;;;;;;;12.73;7.72;;;;;;;-146.27;79.01;82436.41;5049712;28;20151;-68
2023/08/30 03:48:00;;;;;;;10.35;6.47;;;;;;;-146.27;78.96;82444.44;5051912;28;20020;-69
2023/08/30 03:50:25;;;;;;;12.48;7.15;;;;;;;-146.27;79.85;82466.56;5036961;28;20030;-69
2023/08/30 03:52:50;;;;;;;8.10;5.35;;;;;;;-146.27;80.01;82464.53;5040676;28;20025;-69
2023/08/30 03:55:16;;;;;;;10.38;6.60;;;;;;;-146.27;79.83;82508.72;5050913;28;20511;-69
2023/08/30 03:57:41;;;;;;;12.35;6.85;;;;;;;-146.27;79.87;82474.59;5034171;28;20056;-68
2023/08/30 04:00:07;;;;;;;12.57;6.88;;;;;;;-146.27;79.94;82516.78;5037832;28;20040;-68
2023/08/30 04:02:32;;;;;;;15.68;7.07;;;;;;;-146.27;79.96;82556.94;5040473;28;20032;-68
2023/08/30 04:04:57;;;;;;;13.00;7.00;;;;;;;-146.27;80.19;82510.75;5051453;28;20047;-69
2023/08/30 04:07:23;;;;;;;12.13;6.35;;;;;;;-146.27;80.18;82554.94;5045351;28;20028;-70
2023/08/30 04:09:49;;;;;;;8.55;6.60;;;;;;;-146.27;80.60;82536.84;5041387;28;20098;-70
2023/08/30 04:12:15;;;;;;;14.60;7.45;;;;;;;-146.27;80.48;82536.84;5035364;28;20120;-68
2023/08/30 04:14:40;;;;;;;10.48;6.75;;;;;;;-146.27;80.37;82536.84;5041003;28;20148;-68
2023/08/30 04:17:06;;;;;;;13.85;7.38;;;;;;;-146.27;80.33;82528.81;5036363;28;20029;-70
2023/08/30 04:19:31;;;;;;;9.93;6.90;;;;;;;-146.27;80.26;82536.84;5036142;28;20029;-68
2023/08/30 04:21:56;;;;;;;14.98;7.20;;;;;;;-146.27;79.82;82538.88;5050136;28;20052;-69
2023/08/30 04:24:22;;;;;;;12.35;6.00;;;;;;;-146.27;80.32;82500.69;5038902;28;20086;-71
2023/08/30 04:26:51;;;;;;;11.18;7.35;;;;;;;-146.27;80.62;82546.91;5035394;28;20026;-69
2023/08/30 04:29:16;;;;;;;11.85;7.50;;;;;;;-146.27;80.45;82564.97;5038489;28;20593;-69
2023/08/30 04:31:43;;;;;;;12.05;7.88;;;;;;;-146.27;80.65;82542.88;5043309;28;20063;-69
2023/08/30 04:34:09;;;;;;;12.95;7.45;;;;;;;-146.27;80.42;82542.88;5047582;28;20161;-68
2023/08/30 04:36:34;;;;;;;10.20;6.85;;;;;;;-146.27;80.31;82585.06;5049226;28;20028;-69
2023/08/30 04:38:59;;;;;;;9.98;6.75;;;;;;;-146.27;80.13;82518.78;5046404;28;20025;-69
2023/08/30 04:41:25;;;;;;;13.65;6.95;;;;;;;-146.27;80.34;82540.88;5044926;28;21720;-67
2023/08/30 04:43:50;;;;;;;12.00;6.97;;;;;;;-146.27;79.80;82548.91;5036235;28;20072;-69
2023/08/30 04:46:16;;;;;;;12.18;6.97;;;;;;;-146.27;80.83;82534.84;5044233;28;20048;-69
2023/08/30 04:48:41;;;;;;;18.05;7.70;;;;;;;-146.27;79.95;82560.97;5048114;28;20407;-69
2023/08/30 04:51:06;;;;;;;13.90;7.75;;;;;;;-146.27;79.71;82556.94;5047560;28;20028;-70
2023/08/30 04:53:32;;;;;;;18.80;8.35;;;;;;;-146.27;79.86;82599.13;5048771;28;20032;-68
2023/08/30 04:55:57;;;;;;;13.00;7.55;;;;;;;-146.27;79.57;82534.84;5036035;28;20534;-71
2023/08/30 04:58:23;;;;;;;17.17;7.88;;;;;;;-146.27;79.47;82526.81;5042822;28;20025;-70
2023/08/30 05:00:48;;;;;;;14.23;7.15;;;;;;;-146.27;79.55;82591.09;5041918;28;20432;-69
2023/08/30 05:03:14;;;;;;;13.02;8.00;;;;;;;-146.27;80.06;82571.00;5039985;28;20085;-69
2023/08/30 05:05:39;;;;;;;15.18;6.88;;;;;;;-146.27;79.80;82540.88;5042629;28;20295;-69
2023/08/30 05:08:05;;;;;;;17.25;7.75;;;;;;;-146.27;80.24;82514.75;5044100;28;20370;-74
2023/08/30 05:10:30;;;;;;;13.20;8.15;;;;;;;-146.27;81.64;82538.88;5037242;28;20033;-72
2023/08/30 05:12:55;;;;;;;14.60;8.23;;;;;;;-146.27;81.93;82544.91;5040194;28;20025;-74
2023/08/30 05:15:21;;;;;;;20.48;8.77;;;;;;;-146.27;82.58;82526.81;5047694;28;20452;-73
2023/08/30 05:17:47;;;;;;;15.60;8.25;;;;;;;-146.27;83.50;82556.94;5045972;28;20037;-72
2023/08/30 05:20:12;;;;;;;15.98;8.77;;;;;;;-146.27;84.34;82532.84;5030630;28;20374;-73
2023/08/30 05:22:38;;;;;;;14.45;8.32;;;;;;;-146.27;85.65;82562.97;5029257;28;20033;-73
2023/08/30 05:25:04;;;;;;;17.67;9.18;;;;;;;-146.27;86.59;82597.13;5029527;28;20049;-72
2023/08/30 05:27:29;;;;;;;17.35;9.18;;;;;;;-146.27;87.54;82621.22;5031782;28;20036;-73
2023/08/30 05:29:55;;;;;;;14.80;8.60;;;;;;;-146.27;88.76;82649.34;5042312;28;20025;-71
2023/08/30 05:32:21;;;;;;;18.70;9.85;;;;;;;-146.27;89.70;82669.44;5038422;28;20037;-72
2023/08/30 05:34:47;;;;;;;14.57;8.85;;;;;;;-146.27;89.47;82637.31;5043174;28;20655;-72
2023/08/30 05:37:12;;;;;;;23.42;11.63;;;;;;;-146.27;90.25;82621.22;5032122;28;20527;-72
2023/08/30 05:39:38;;;;;;;22.17;10.95;;;;;;;-146.27;90.91;82665.44;5033346;28;20026;-70
2023/08/30 05:42:03;;;;;;;22.25;11.88;;;;;;;-146.27;92.09;82651.38;5037790;28;20033;-73
2023/08/30 05:44:29;;;;;;;22.80;11.57;;;;;;;-146.27;93.32;82633.28;5035090;28;20094;-72
2023/08/30 05:46:54;;;;;;;23.05;11.48;;;;;;;-146.27;93.83;82675.47;5036972;28;20108;-72
2023/08/30 05:49:19;;;;;;;22.67;13.05;;;;;;;-146.27;94.04;82681.50;5044603;28;20547;-68
2023/08/30 05:51:45;;;;;;;20.25;12.00;;;;;;;-146.27;94.38;82697.56;5049987;28;20036;-73
2023/08/30 05:54:10;;;;;;;19.20;11.18;;;;;;;-146.27;94.19;82705.59;5040277;28;20142;-73
2023/08/30 05:56:36;;;;;;;21.25;12.48;;;;;;;-146.27;94.29;82727.72;5053019;28;20029;-72
2023/08/30 05:59:02;;;;;;;18.75;10.82;;;;;;;-146.27;95.15;82711.63;5031902;28;20365;-72
2023/08/30 06:01:27;;;;;;;25.48;11.80;;;;;;;-146.27;95.07;82709.63;5030572;28;20050;-72
2023/08/30 06:03:53;;;;;;;23.10;13.20;;;;;;;-146.27;95.70;82689.53;5052856;28;20051;-72
2023/08/30 06:06:18;;;;;;;22.58;12.70;;;;;;;-146.27;96.33;82729.72;5041963;28;20054;-72
2023/08/30 06:08:43;;;;;;;18.02;12.00;;;;;;;-146.27;96.52;82749.81;5049093;28;20428;-71
2023/08/30 06:11:09;;;;;;;22.23;12.63;;;;;;;-146.27;96.63;82733.72;5040082;28;20067;-74
2023/08/30 06:13:34;;;;;;;20.95;11.32;;;;;;;-146.27;96.21;82695.56;5044195;28;20115;-71
2023/08/30 06:16:00;;;;;;;21.50;12.35;;;;;;;-146.27;96.39;82729.72;5037267;28;20033;-72
2023/08/30 06:18:29;;;;;;;22.00;12.15;;;;;;;-146.27;97.05;82709.63;5042112;28;20020;-68
2023/08/30 06:20:55;;;;;;;19.58;12.18;;;;;;;-146.27;96.80;82721.69;5056952;28;20025;-70
2023/08/30 06:23:20;;;;;;;28.15;13.95;;;;;;;-146.27;96.97;82719.66;5049791;28;20022;-68
2023/08/30 06:25:53;;;;;;;22.40;12.40;;;;;;;-146.27;97.09;82747.78;5040435;28;20029;-69
2023/08/30 06:28:19;;;;;;;24.83;12.43;;;;;;;-146.27;97.17;82725.69;5047743;28;20040;-68
2023/08/30 06:30:44;;;;;;;22.20;13.32;;;;;;;-146.27;97.63;82751.81;5037772;28;20029;-67
2023/08/30 06:33:09;;;;;;;21.40;12.05;;;;;;;-146.27;97.35;82719.66;5052413;28;20044;-68
2023/08/30 06:35:39;;;;;;;18.45;11.82;;;;;;;-146.27;97.46;82725.69;5036908;28;20030;-68
2023/08/30 06:38:04;;;;;;;18.83;11.32;;;;;;;-146.27;97.79;82721.69;5049911;28;20116;-69
2023/08/30 06:40:29;;;;;;;17.73;10.60;;;;;;;-146.27;97.80;82711.63;5048616;28;20112;-68
2023/08/30 06:42:55;;;;;;;16.73;11.20;;;;;;;-146.27;98.47;82741.78;5049118;28;20013;-68
2023/08/30 06:45:20;;;;;;;16.48;11.35;;;;;;;-146.27;98.76;82725.69;5051313;28;20052;-69
2023/08/30 06:47:47;;;;;;;19.95;10.75;;;;;;;-146.27;98.76;82745.78;5048606;28;20018;-68
2023/08/30 06:50:13;;;;;;;21.80;11.90;;;;;;;-146.27;98.70;82725.69;5042028;28;20025;-68
2023/08/30 06:52:38;;;;;;;17.60;11.38;;;;;;;-146.27;99.11;82743.78;5047710;28;20036;-69
2023/08/30 06:55:04;;;;;;;20.92;12.32;;;;;;;-146.27;99.62;82687.53;5039024;28;20426;-69
2023/08/30 06:57:29;;;;;;;15.55;9.75;;;;;;;-146.27;99.46;82693.56;5036019;28;20027;-68
2023/08/30 06:59:54;;;;;;;18.02;10.77;;;;;;;-146.27;99.52;82697.56;5034434;28;20029;-67
2023/08/30 07:02:20;;;;;;;17.38;10.27;;;;;;;-146.27;99.66;82701.59;5046280;28;20024;-68
2023/08/30 07:04:45;;;;;;;18.67;9.95;;;;;;;-146.27;99.83;82677.47;5052143;28;20061;-69
2023/08/30 07:07:13;;;;;;;16.63;9.48;;;;;;;-146.27;99.98;82695.56;5046862;28;20032;-68
2023/08/30 07:09:38;;;;;;;18.13;9.80;;;;;;;-146.27;99.65;82655.38;5033553;28;20025;-68
2023/08/30 07:12:04;;;;;;;14.00;9.35;;;;;;;-146.27;99.93;82657.41;5043301;28;20163;-70
2023/08/30 07:14:29;;;;;;;16.05;10.52;;;;;;;-146.27;100.00;82671.47;5051589;28;20052;-69
2023/08/30 07:16:54;;;;;;;15.10;9.70;;;;;;;-146.27;99.72;82653.38;5051432;28;20051;-68
2023/08/30 07:19:20;;;;;;;18.25;10.13;;;;;;;-146.27;99.26;82645.34;5046828;28;20523;-68
2023/08/30 07:21:45;;;;;;;15.05;10.00;;;;;;;-146.27;99.50;82647.34;5020477;28;20028;-68
2023/08/30 07:24:11;;;;;;;15.90;10.50;;;;;;;-146.27;99.78;82687.53;5020751;28;20037;-68
2023/08/30 07:26:36;;;;;;;15.90;9.82;;;;;;;-146.27;99.70;82705.59;5025425;28;20039;-67
2023/08/30 07:29:04;;;;;;;14.05;8.60;;;;;;;-146.27;99.74;82633.28;5031036;28;20049;-68
2023/08/30 07:31:31;;;;;;;11.63;8.68;;;;;;;-146.27;99.61;82649.34;5045095;28;20025;-68
2023/08/30 07:33:57;;;;;;;12.30;9.27;;;;;;;-146.27;99.30;82673.47;5035174;28;20033;-70
2023/08/30 07:36:23;;;;;;;11.68;8.65;;;;;;;-146.27;99.46;82669.44;5047928;28;20021;-68
2023/08/30 07:38:48;;;;;;;14.82;9.35;;;;;;;-146.27;99.66;82665.44;5049357;28;20048;-68
2023/08/30 07:41:14;;;;;;;12.93;8.88;;;;;;;-146.27;99.56;82643.31;5047454;28;20025;-68
2023/08/30 07:43:39;;;;;;;13.63;8.75;;;;;;;-146.27;99.80;82657.41;5042626;28;20061;-67
2023/08/30 07:46:04;;;;;;;12.15;8.68;;;;;;;-146.27;99.75;82657.41;5041301;28;20035;-68
2023/08/30 07:48:30;;;;;;;13.57;7.97;;;;;;;-146.27;99.55;82627.25;5053278;28;20028;-68
2023/08/30 07:50:55;;;;;;;11.05;8.65;;;;;;;-146.27;99.40;82637.31;5046701;28;20082;-68
2023/08/30 07:53:21;;;;;;;11.70;8.70;;;;;;;-146.27;99.59;82683.50;5066173;28;20507;-68
2023/08/30 07:55:52;;;;;;;13.15;8.90;;;;;;;-146.27;99.98;82617.22;5043193;28;20029;-67
2023/08/30 07:58:17;;;;;;;10.65;7.55;;;;;;;-146.27;99.80;82649.34;5044529;28;20063;-68
2023/08/30 08:00:43;;;;;;;12.40;8.23;;;;;;;-146.27;100.00;82669.44;5033124;28;20488;-67
2023/08/30 08:03:10;;;;;;;9.93;8.02;;;;;;;-146.27;100.00;82657.41;5038127;28;20071;-67
2023/08/30 08:05:36;;;;;;;11.85;7.82;;;;;;;-146.27;100.00;82647.34;5049548;28;20388;-70
2023/08/30 08:08:02;;;;;;;11.65;7.45;;;;;;;-146.27;100.00;82627.25;5046980;28;20025;-66
2023/08/30 08:10:32;;;;;;;11.90;8.18;;;;;;;-146.27;100.00;82621.22;5044914;28;20129;-67
2023/08/30 08:12:58;;;;;;;13.35;8.45;;;;;;;-146.27;100.00;82569.00;5037253;28;20053;-68
2023/08/30 08:15:23;;;;;;;14.60;9.30;;;;;;;-146.27;99.93;82619.22;5043573;28;20084;-68
2023/08/30 08:17:49;;;;;;;10.88;8.20;;;;;;;-146.27;100.00;82645.34;5043506;28;20051;-66
2023/08/30 08:20:14;;;;;;;13.40;9.95;;;;;;;-146.27;100.00;82637.31;5037217;28;21345;-66
2023/08/30 08:22:40;;;;;;;13.15;10.15;;;;;;;-146.27;100.00;82637.31;5044062;28;20029;-66
2023/08/30 08:25:05;;;;;;;12.68;10.02;;;;;;;-146.27;100.00;82629.28;5047731;28;20103;-66
2023/08/30 08:27:31;;;;;;;14.02;10.30;;;;;;;-146.27;100.00;82601.16;5054801;28;20032;-66
2023/08/30 08:29:56;;;;;;;14.75;10.52;;;;;;;-146.27;100.00;82621.22;5050328;28;20360;-66
2023/08/30 08:32:22;;;;;;;17.77;11.25;;;;;;;-146.27;100.00;82577.03;5054610;28;20033;-66
2023/08/30 08:34:47;;;;;;;17.67;11.65;;;;;;;-146.27;100.00;82591.09;5048134;28;20245;-67
2023/08/30 08:37:13;;;;;;;17.10;11.98;;;;;;;-146.27;100.00;82617.22;5046647;28;20078;-66
2023/08/30 08:39:38;;;;;;;17.55;12.38;;;;;;;-146.27;100.00;82573.00;5046121;28;20029;-66
2023/08/30 08:42:03;;;;;;;13.40;10.50;;;;;;;-146.27;100.00;82577.03;5043633;28;20790;-69
2023/08/30 08:44:32;;;;;;;15.57;10.93;;;;;;;-146.27;100.00;82532.84;5044774;28;20051;-66
2023/08/30 08:46:59;;;;;;;15.52;11.15;;;;;;;-146.27;100.00;82484.63;5043899;28;20020;-66
2023/08/30 08:49:28;;;;;;;9.10;8.20;;;;;;;-146.27;100.00;82484.63;5044074;28;20053;-67
2023/08/30 08:51:54;;;;;;;7.80;6.10;;;;;;;-146.27;100.00;82370.13;5039718;28;20033;-65
2023/08/30 08:54:19;;;;;;;8.25;5.88;;;;;;;-146.27;100.00;82368.13;5034918;28;20032;-64
2023/08/30 08:56:46;;;;;;;6.65;4.30;;;;;;;-146.27;100.00;82315.88;5044648;28;20465;-68
2023/08/30 08:59:11;;;;;;;5.88;3.70;;;;;;;-146.27;99.91;82285.75;5042230;28;20025;-66
2023/08/30 09:01:39;;;;;;;9.50;3.83;;;;;;;-146.27;99.75;82255.63;5037717;28;20082;-66
2023/08/30 09:04:09;;;;;;;6.07;3.10;;;;;;;-146.27;98.31;82227.50;5046377;28;20060;-66
2023/08/30 09:06:35;;;;;;;8.90;3.60;;;;;;;-146.27;98.42;82141.13;5042345;28;20025;-68
2023/08/30 09:09:06;;;;;;;13.07;3.55;;;;;;;-146.27;98.56;82119.03;5038571;28;20483;-68
2023/08/30 09:11:32;;;;;;;6.32;3.17;;;;;;;-146.27;98.26;82038.69;5034994;28;20385;-68
2023/08/30 09:13:57;;;;;;;6.68;3.10;;;;;;;-146.27;93.13;82143.13;5061993;28;20133;-67
2023/08/30 09:16:23;;;;;;;6.18;2.65;;;;;;;-146.27;93.92;82078.84;5040181;28;20029;-68
2023/08/30 09:18:59;;;;;;;9.85;2.45;;;;;;;-146.27;93.31;82008.56;5048394;28;20083;-69
2023/08/30 09:21:25;;;;;;;7.13;2.90;;;;;;;-146.27;93.18;82054.75;5050263;28;20025;-69
2023/08/30 09:23:57;;;;;;;4.63;2.30;;;;;;;-146.27;93.48;81948.31;5040992;28;20044;-68
2023/08/30 09:26:23;;;;;;;8.38;1.83;;;;;;;-146.27;92.03;81982.44;5034146;28;20563;-69
2023/08/30 09:28:48;;;;;;;6.45;2.30;;;;;;;-146.27;91.00;81966.38;5035225;28;20104;-68
2023/08/30 09:31:20;;;;;;;4.93;1.90;;;;;;;-146.27;89.86;81920.19;5038216;28;20025;-68
2023/08/30 09:33:47;;;;;;;10.20;2.95;;;;;;;-146.27;88.71;81930.22;5029879;28;20049;-69
2023/08/30 09:36:13;;;;;;;8.70;1.95;;;;;;;-146.27;89.09;81910.13;5044622;28;20027;-69
2023/08/30 09:38:38;;;;;;;5.93;2.72;;;;;;;-146.27;89.34;81890.06;5030483;28;20393;-68
2023/08/30 09:41:04;;;;;;;9.40;2.45;;;;;;;-146.27;88.20;81906.13;5029893;28;20446;-70
2023/08/30 09:43:32;;;;;;;4.30;1.90;;;;;;;-146.27;88.19;81902.09;5032944;28;20493;-70
2023/08/30 09:45:57;;;;;;;6.28;1.83;;;;;;;-146.27;84.69;81906.13;5040725;28;20039;-70
2023/08/30 09:48:28;;;;;;;8.55;1.90;;;;;;;-146.27;85.74;81902.09;5040257;28;20033;-74
2023/08/30 09:50:54;;;;;;;10.77;2.08;;;;;;;-146.27;83.35;81952.31;5031191;28;20032;-74
2023/08/30 09:53:25;;;;;;;8.85;1.83;;;;;;;-146.27;80.46;81958.34;5049681;28;20092;-74
2023/08/30 09:55:52;;;;;;;9.13;1.98;;;;;;;-146.27;78.16;81954.31;5049239;28;20032;-75
2023/08/30 09:58:17;;;;;;;12.27;2.40;;;;;;;-146.27;79.39;81922.19;5049621;28;20277;-74
2023/08/30 10:00:43;;;;;;;7.53;1.77;;;;;;;-146.27;77.37;81950.31;5043508;28;20111;-74
2023/08/30 10:03:09;;;;;;;6.93;1.90;;;;;;;-146.27;77.89;81970.41;5041341;28;20555;-75
2023/08/30 10:05:35;;;;;;;6.35;2.13;;;;;;;-146.27;77.32;81998.50;5041043;28;20029;-76
2023/08/30 10:08:02;;;;;;;10.75;1.92;;;;;;;-146.27;77.24;81998.50;5043024;28;20021;-74
2023/08/30 10:10:29;;;;;;;12.40;3.05;;;;;;;-146.27;77.04;82058.78;5036156;28;20021;-73
2023/08/30 10:12:56;;;;;;;9.88;2.03;;;;;;;-146.27;77.23;82038.69;5045517;28;20029;-72
2023/08/30 10:15:26;;;;;;;12.45;2.90;;;;;;;-146.27;77.62;82006.53;5029381;28;20057;-71
2023/08/30 10:17:54;;;;;;;10.88;1.67;;;;;;;-146.27;77.75;81886.03;5036124;28;20040;-74
2023/08/30 10:20:19;;;;;;;8.70;2.30;;;;;;;-146.27;75.84;81829.78;5038880;28;20263;-73
2023/08/30 10:22:47;;;;;;;10.88;2.10;;;;;;;-146.27;73.86;81797.66;5048351;28;20552;-73
2023/08/30 10:25:17;;;;;;;10.20;1.88;;;;;;;-146.27;72.88;81785.59;5046575;28;20441;-73
2023/08/30 10:27:46;;;;;;;9.80;1.95;;;;;;;-146.27;72.59;81827.78;5029144;28;20013;-71
2023/08/30 10:30:14;;;;;;;9.45;1.95;;;;;;;-146.27;73.45;81894.06;5029779;28;20030;-72
2023/08/30 10:32:44;;;;;;;5.90;1.98;;;;;;;-146.27;72.96;81928.22;5046107;28;20029;-71
2023/08/30 10:35:14;;;;;;;8.75;2.00;;;;;;;-146.27;73.14;81934.25;5039773;28;20449;-70
2023/08/30 10:37:40;;;;;;;13.57;2.10;;;;;;;-146.27;73.15;81867.97;5048959;28;20389;-73
2023/08/30 10:40:07;;;;;;;13.50;2.40;;;;;;;-146.27;71.77;81801.69;5042562;28;20026;-72
2023/08/30 10:42:32;;;;;;;10.40;1.80;;;;;;;-146.27;71.72;81721.34;5029238;28;20076;-73
2023/08/30 10:45:05;;;;;;;11.32;1.75;;;;;;;-146.27;67.89;81701.25;5029248;28;20033;-74
2023/08/30 10:47:35;;;;;;;11.05;2.20;;;;;;;-146.27;66.46;81729.38;5047461;28;20021;-73
2023/08/30 10:50:05;;;;;;;11.68;1.70;;;;;;;-146.27;68.50;81703.25;5041347;28;20025;-72
2023/08/30 10:52:30;;;;;;;6.82;1.73;;;;;;;-146.27;63.19;81709.28;5048630;28;20116;-74
2023/08/30 10:55:09;;;;;;;4.97;1.30;;;;;;;-146.27;62.32;81649.03;5048682;28;20029;-74
2023/08/30 10:57:36;;;;;;;7.28;1.70;;;;;;;-146.27;64.08;81566.69;5049022;28;20025;-73
2023/08/30 11:00:17;;;;;;;7.20;1.52;;;;;;;-146.27;61.42;81584.75;5047542;28;20063;-70
2023/08/30 11:02:48;;;;;;;7.20;1.42;;;;;;;-146.27;61.40;81562.66;5046256;28;20072;-69
2023/08/30 11:05:19;;;;;;;7.82;1.38;;;;;;;-146.27;60.02;81673.13;5036316;28;20033;-69
2023/08/30 11:07:45;;;;;;;10.80;1.40;;;;;;;-146.27;59.74;81689.19;5045282;28;20103;-68